sensor_id;sensor_type;location;lat;lon;timestamp;temperature;humidity
939;DHT22;456;53.584;9.968;2024-01-27T00:01:39;16.80;22.00
939;DHT22;456;53.584;9.968;2024-01-27T00:04:05;16.80;22.10
939;DHT22;456;53.584;9.968;2024-01-27T00:06:31;16.80;22.00
939;DHT22;456;53.584;9.968;2024-01-27T00:08:56;16.90;22.00
939;DHT22;456;53.584;9.968;2024-01-27T00:11:22;16.80;22.00
939;DHT22;456;53.584;9.968;2024-01-27T00:13:50;16.80;22.10
939;DHT22;456;53.584;9.968;2024-01-27T00:16:15;16.80;22.00
939;DHT22;456;53.584;9.968;2024-01-27T00:18:41;16.80;21.90
939;DHT22;456;53.584;9.968;2024-01-27T00:21:07;16.80;21.90
939;DHT22;456;53.584;9.968;2024-01-27T00:23:33;16.80;22.00
939;DHT22;456;53.584;9.968;2024-01-27T00:26:02;16.80;21.90
939;DHT22;456;53.584;9.968;2024-01-27T00:28:29;16.80;21.90
939;DHT22;456;53.584;9.968;2024-01-27T00:30:54;16.80;22.00
939;DHT22;456;53.584;9.968;2024-01-27T00:33:21;16.70;21.90
939;DHT22;456;53.584;9.968;2024-01-27T00:35:46;16.80;22.00
939;DHT22;456;53.584;9.968;2024-01-27T00:38:12;16.70;21.90
939;DHT22;456;53.584;9.968;2024-01-27T00:40:38;16.70;21.90
939;DHT22;456;53.584;9.968;2024-01-27T00:43:03;16.70;22.00
939;DHT22;456;53.584;9.968;2024-01-27T00:45:29;16.70;22.00
939;DHT22;456;53.584;9.968;2024-01-27T00:47:56;16.70;21.90
939;DHT22;456;53.584;9.968;2024-01-27T00:50:22;16.70;21.90
939;DHT22;456;53.584;9.968;2024-01-27T00:52:47;16.70;22.00
939;DHT22;456;53.584;9.968;2024-01-27T00:55:13;16.70;21.80
939;DHT22;456;53.584;9.968;2024-01-27T00:57:39;16.70;21.80
939;DHT22;456;53.584;9.968;2024-01-27T01:00:07;16.70;21.90
939;DHT22;456;53.584;9.968;2024-01-27T01:02:33;16.70;21.80
939;DHT22;456;53.584;9.968;2024-01-27T01:04:58;16.70;21.80
939;DHT22;456;53.584;9.968;2024-01-27T01:07:24;16.70;21.90
939;DHT22;456;53.584;9.968;2024-01-27T01:09:50;16.70;21.80
939;DHT22;456;53.584;9.968;2024-01-27T01:12:16;16.60;21.60
939;DHT22;456;53.584;9.968;2024-01-27T01:14:43;16.60;21.60
939;DHT22;456;53.584;9.968;2024-01-27T01:17:08;16.60;21.70
939;DHT22;456;53.584;9.968;2024-01-27T01:19:36;16.70;22.30
939;DHT22;456;53.584;9.968;2024-01-27T01:22:02;16.60;21.70
939;DHT22;456;53.584;9.968;2024-01-27T01:24:29;16.60;21.60
939;DHT22;456;53.584;9.968;2024-01-27T01:26:54;16.60;21.50
939;DHT22;456;53.584;9.968;2024-01-27T01:29:20;16.60;21.60
939;DHT22;456;53.584;9.968;2024-01-27T01:31:45;16.60;21.60
939;DHT22;456;53.584;9.968;2024-01-27T01:34:11;16.60;21.70
939;DHT22;456;53.584;9.968;2024-01-27T01:36:36;16.60;21.50
939;DHT22;456;53.584;9.968;2024-01-27T01:39:03;16.60;21.60
939;DHT22;456;53.584;9.968;2024-01-27T01:41:28;16.60;21.50
939;DHT22;456;53.584;9.968;2024-01-27T01:43:54;16.60;21.50
939;DHT22;456;53.584;9.968;2024-01-27T01:46:21;16.60;21.50
939;DHT22;456;53.584;9.968;2024-01-27T01:48:49;16.60;21.50
939;DHT22;456;53.584;9.968;2024-01-27T01:51:16;16.60;21.50
939;DHT22;456;53.584;9.968;2024-01-27T01:53:42;16.60;21.50
939;DHT22;456;53.584;9.968;2024-01-27T01:56:08;16.60;21.60
939;DHT22;456;53.584;9.968;2024-01-27T01:58:34;16.60;21.50
939;DHT22;456;53.584;9.968;2024-01-27T02:01:02;16.60;21.60
939;DHT22;456;53.584;9.968;2024-01-27T02:03:28;16.60;21.60
939;DHT22;456;53.584;9.968;2024-01-27T02:05:55;16.60;21.50
939;DHT22;456;53.584;9.968;2024-01-27T02:08:21;16.60;21.60
939;DHT22;456;53.584;9.968;2024-01-27T02:10:46;16.60;21.60
939;DHT22;456;53.584;9.968;2024-01-27T02:15:46;16.60;21.50
939;DHT22;456;53.584;9.968;2024-01-27T02:18:12;16.50;21.40
939;DHT22;456;53.584;9.968;2024-01-27T02:20:37;16.50;21.50
939;DHT22;456;53.584;9.968;2024-01-27T02:23:04;16.50;21.50
939;DHT22;456;53.584;9.968;2024-01-27T02:25:33;16.50;21.40
939;DHT22;456;53.584;9.968;2024-01-27T02:28:00;16.60;21.50
939;DHT22;456;53.584;9.968;2024-01-27T02:30:25;16.50;21.40
939;DHT22;456;53.584;9.968;2024-01-27T02:32:52;16.50;21.40
939;DHT22;456;53.584;9.968;2024-01-27T02:35:17;16.50;21.50
939;DHT22;456;53.584;9.968;2024-01-27T02:37:43;16.50;21.40
939;DHT22;456;53.584;9.968;2024-01-27T02:40:09;16.50;21.40
939;DHT22;456;53.584;9.968;2024-01-27T02:42:35;16.50;21.50
939;DHT22;456;53.584;9.968;2024-01-27T02:45:01;16.50;21.40
939;DHT22;456;53.584;9.968;2024-01-27T02:47:27;16.50;22.00
939;DHT22;456;53.584;9.968;2024-01-27T02:49:53;16.50;21.40
939;DHT22;456;53.584;9.968;2024-01-27T02:52:18;16.50;21.40
939;DHT22;456;53.584;9.968;2024-01-27T02:54:44;16.50;21.50
939;DHT22;456;53.584;9.968;2024-01-27T02:57:10;16.50;21.50
939;DHT22;456;53.584;9.968;2024-01-27T02:59:36;16.50;21.40
939;DHT22;456;53.584;9.968;2024-01-27T03:02:04;16.50;21.40
939;DHT22;456;53.584;9.968;2024-01-27T03:04:30;16.50;21.50
939;DHT22;456;53.584;9.968;2024-01-27T03:06:55;16.50;21.50
939;DHT22;456;53.584;9.968;2024-01-27T03:09:21;16.50;21.50
939;DHT22;456;53.584;9.968;2024-01-27T03:11:47;16.50;21.50
939;DHT22;456;53.584;9.968;2024-01-27T03:14:12;16.50;21.40
939;DHT22;456;53.584;9.968;2024-01-27T03:16:38;16.50;21.40
939;DHT22;456;53.584;9.968;2024-01-27T03:19:04;16.50;21.30
939;DHT22;456;53.584;9.968;2024-01-27T03:21:29;16.50;21.40
939;DHT22;456;53.584;9.968;2024-01-27T03:23:55;16.50;21.40
939;DHT22;456;53.584;9.968;2024-01-27T03:26:20;16.50;21.40
939;DHT22;456;53.584;9.968;2024-01-27T03:28:46;16.50;21.40
939;DHT22;456;53.584;9.968;2024-01-27T03:31:11;16.50;21.40
939;DHT22;456;53.584;9.968;2024-01-27T03:33:37;16.50;21.40
939;DHT22;456;53.584;9.968;2024-01-27T03:36:03;16.40;21.40
939;DHT22;456;53.584;9.968;2024-01-27T03:38:34;16.50;21.90
939;DHT22;456;53.584;9.968;2024-01-27T03:41:02;16.50;21.40
939;DHT22;456;53.584;9.968;2024-01-27T03:43:27;16.40;21.30
939;DHT22;456;53.584;9.968;2024-01-27T03:45:53;16.40;21.30
939;DHT22;456;53.584;9.968;2024-01-27T03:48:18;16.40;21.30
939;DHT22;456;53.584;9.968;2024-01-27T03:50:44;16.40;21.30
939;DHT22;456;53.584;9.968;2024-01-27T03:53:10;16.40;21.30
939;DHT22;456;53.584;9.968;2024-01-27T03:55:35;16.40;21.20
939;DHT22;456;53.584;9.968;2024-01-27T03:58:01;16.50;21.30
939;DHT22;456;53.584;9.968;2024-01-27T04:00:27;16.40;21.20
939;DHT22;456;53.584;9.968;2024-01-27T04:02:55;16.40;21.30
939;DHT22;456;53.584;9.968;2024-01-27T04:05:20;16.40;21.20
939;DHT22;456;53.584;9.968;2024-01-27T04:07:46;16.40;21.20
939;DHT22;456;53.584;9.968;2024-01-27T04:10:11;16.40;21.30
939;DHT22;456;53.584;9.968;2024-01-27T04:12:37;16.40;21.80
939;DHT22;456;53.584;9.968;2024-01-27T04:15:03;16.40;21.20
939;DHT22;456;53.584;9.968;2024-01-27T04:17:29;16.40;21.20
939;DHT22;456;53.584;9.968;2024-01-27T04:19:54;16.40;21.40
939;DHT22;456;53.584;9.968;2024-01-27T04:22:20;16.40;21.20
939;DHT22;456;53.584;9.968;2024-01-27T04:24:45;16.40;21.30
939;DHT22;456;53.584;9.968;2024-01-27T04:27:11;16.40;21.30
939;DHT22;456;53.584;9.968;2024-01-27T04:29:36;16.40;21.30
939;DHT22;456;53.584;9.968;2024-01-27T04:32:02;16.40;21.30
939;DHT22;456;53.584;9.968;2024-01-27T04:34:28;16.40;21.30
939;DHT22;456;53.584;9.968;2024-01-27T04:36:53;16.40;21.90
939;DHT22;456;53.584;9.968;2024-01-27T04:39:19;16.40;21.80
939;DHT22;456;53.584;9.968;2024-01-27T04:41:45;16.40;21.10
939;DHT22;456;53.584;9.968;2024-01-27T04:44:11;16.40;21.10
939;DHT22;456;53.584;9.968;2024-01-27T04:46:36;16.40;21.10
939;DHT22;456;53.584;9.968;2024-01-27T04:49:02;16.40;21.10
939;DHT22;456;53.584;9.968;2024-01-27T04:51:27;16.40;21.10
939;DHT22;456;53.584;9.968;2024-01-27T04:53:53;16.40;21.70
939;DHT22;456;53.584;9.968;2024-01-27T04:56:18;16.30;21.00
939;DHT22;456;53.584;9.968;2024-01-27T04:58:44;16.40;21.10
939;DHT22;456;53.584;9.968;2024-01-27T05:01:10;16.40;21.10
939;DHT22;456;53.584;9.968;2024-01-27T05:03:35;16.40;21.00
939;DHT22;456;53.584;9.968;2024-01-27T05:06:02;16.40;21.10
939;DHT22;456;53.584;9.968;2024-01-27T05:08:27;16.30;20.90
939;DHT22;456;53.584;9.968;2024-01-27T05:10:53;16.30;20.90
939;DHT22;456;53.584;9.968;2024-01-27T05:13:18;16.40;20.90
939;DHT22;456;53.584;9.968;2024-01-27T05:15:44;16.30;20.90
939;DHT22;456;53.584;9.968;2024-01-27T05:18:10;16.40;20.90
939;DHT22;456;53.584;9.968;2024-01-27T05:20:35;16.30;20.80
939;DHT22;456;53.584;9.968;2024-01-27T05:23:01;16.40;20.90
939;DHT22;456;53.584;9.968;2024-01-27T05:25:27;16.30;21.00
939;DHT22;456;53.584;9.968;2024-01-27T05:27:52;16.40;21.30
939;DHT22;456;53.584;9.968;2024-01-27T05:30:18;16.50;21.30
939;DHT22;456;53.584;9.968;2024-01-27T05:32:43;16.50;21.30
939;DHT22;456;53.584;9.968;2024-01-27T05:35:09;16.60;21.40
939;DHT22;456;53.584;9.968;2024-01-27T05:37:35;16.60;21.40
939;DHT22;456;53.584;9.968;2024-01-27T05:40:01;16.70;21.40
939;DHT22;456;53.584;9.968;2024-01-27T05:42:27;16.70;21.40
939;DHT22;456;53.584;9.968;2024-01-27T05:44:53;16.70;21.40
939;DHT22;456;53.584;9.968;2024-01-27T05:47:19;16.80;21.50
939;DHT22;456;53.584;9.968;2024-01-27T05:49:44;16.80;21.50
939;DHT22;456;53.584;9.968;2024-01-27T05:52:10;16.90;21.60
939;DHT22;456;53.584;9.968;2024-01-27T05:54:35;16.90;21.50
939;DHT22;456;53.584;9.968;2024-01-27T05:57:02;16.90;21.40
939;DHT22;456;53.584;9.968;2024-01-27T05:59:28;16.90;21.40
939;DHT22;456;53.584;9.968;2024-01-27T06:01:54;16.90;21.50
939;DHT22;456;53.584;9.968;2024-01-27T06:04:19;16.90;21.40
939;DHT22;456;53.584;9.968;2024-01-27T06:06:45;17.00;21.50
939;DHT22;456;53.584;9.968;2024-01-27T06:09:11;17.00;21.40
939;DHT22;456;53.584;9.968;2024-01-27T06:11:37;17.00;21.40
939;DHT22;456;53.584;9.968;2024-01-27T06:14:03;17.00;21.60
939;DHT22;456;53.584;9.968;2024-01-27T06:16:28;17.00;21.50
939;DHT22;456;53.584;9.968;2024-01-27T06:18:54;17.00;21.40
939;DHT22;456;53.584;9.968;2024-01-27T06:21:20;17.00;21.40
939;DHT22;456;53.584;9.968;2024-01-27T06:23:46;17.10;21.40
939;DHT22;456;53.584;9.968;2024-01-27T06:26:13;17.10;21.40
939;DHT22;456;53.584;9.968;2024-01-27T06:28:39;17.10;21.40
939;DHT22;456;53.584;9.968;2024-01-27T06:31:05;17.10;21.40
939;DHT22;456;53.584;9.968;2024-01-27T06:33:31;17.10;21.40
939;DHT22;456;53.584;9.968;2024-01-27T06:35:57;17.10;21.40
939;DHT22;456;53.584;9.968;2024-01-27T06:38:22;17.10;21.40
939;DHT22;456;53.584;9.968;2024-01-27T06:40:48;17.10;21.40
939;DHT22;456;53.584;9.968;2024-01-27T06:43:14;17.10;21.40
939;DHT22;456;53.584;9.968;2024-01-27T06:45:40;17.10;21.40
939;DHT22;456;53.584;9.968;2024-01-27T06:48:06;17.10;21.30
939;DHT22;456;53.584;9.968;2024-01-27T06:50:32;17.10;21.80
939;DHT22;456;53.584;9.968;2024-01-27T06:52:58;17.10;21.80
939;DHT22;456;53.584;9.968;2024-01-27T06:55:24;17.10;21.20
939;DHT22;456;53.584;9.968;2024-01-27T06:57:50;17.10;21.30
939;DHT22;456;53.584;9.968;2024-01-27T07:00:16;17.10;21.30
939;DHT22;456;53.584;9.968;2024-01-27T07:02:43;17.20;21.30
939;DHT22;456;53.584;9.968;2024-01-27T07:05:09;17.10;21.30
939;DHT22;456;53.584;9.968;2024-01-27T07:07:35;17.20;21.30
939;DHT22;456;53.584;9.968;2024-01-27T07:10:02;17.10;21.40
939;DHT22;456;53.584;9.968;2024-01-27T07:12:27;17.10;21.20
939;DHT22;456;53.584;9.968;2024-01-27T07:14:53;17.10;21.10
939;DHT22;456;53.584;9.968;2024-01-27T07:17:22;17.20;21.20
939;DHT22;456;53.584;9.968;2024-01-27T07:19:47;17.20;21.20
939;DHT22;456;53.584;9.968;2024-01-27T07:22:13;17.20;21.20
939;DHT22;456;53.584;9.968;2024-01-27T07:24:39;17.20;21.20
939;DHT22;456;53.584;9.968;2024-01-27T07:27:04;17.20;21.20
939;DHT22;456;53.584;9.968;2024-01-27T07:29:30;17.20;21.20
939;DHT22;456;53.584;9.968;2024-01-27T07:31:56;17.10;21.10
939;DHT22;456;53.584;9.968;2024-01-27T07:34:21;17.20;21.10
939;DHT22;456;53.584;9.968;2024-01-27T07:36:47;17.20;21.10
939;DHT22;456;53.584;9.968;2024-01-27T07:39:15;17.20;21.10
939;DHT22;456;53.584;9.968;2024-01-27T07:41:41;17.20;21.00
939;DHT22;456;53.584;9.968;2024-01-27T07:44:09;17.20;21.00
939;DHT22;456;53.584;9.968;2024-01-27T07:46:38;17.20;21.00
939;DHT22;456;53.584;9.968;2024-01-27T07:49:05;17.20;21.00
939;DHT22;456;53.584;9.968;2024-01-27T07:51:31;17.20;21.00
939;DHT22;456;53.584;9.968;2024-01-27T07:53:57;17.20;20.90
939;DHT22;456;53.584;9.968;2024-01-27T07:56:23;17.20;20.90
939;DHT22;456;53.584;9.968;2024-01-27T07:58:48;17.20;20.90
939;DHT22;456;53.584;9.968;2024-01-27T08:01:15;17.20;20.90
939;DHT22;456;53.584;9.968;2024-01-27T08:03:41;17.20;20.80
939;DHT22;456;53.584;9.968;2024-01-27T08:06:10;17.20;20.90
939;DHT22;456;53.584;9.968;2024-01-27T08:08:36;17.20;20.80
939;DHT22;456;53.584;9.968;2024-01-27T08:11:02;17.20;20.80
939;DHT22;456;53.584;9.968;2024-01-27T08:13:28;17.20;20.70
939;DHT22;456;53.584;9.968;2024-01-27T08:15:54;17.30;20.70
939;DHT22;456;53.584;9.968;2024-01-27T08:18:19;17.30;20.70
939;DHT22;456;53.584;9.968;2024-01-27T08:20:45;17.30;20.70
939;DHT22;456;53.584;9.968;2024-01-27T08:23:11;17.30;20.70
939;DHT22;456;53.584;9.968;2024-01-27T08:25:36;17.30;20.70
939;DHT22;456;53.584;9.968;2024-01-27T08:28:03;17.40;20.80
939;DHT22;456;53.584;9.968;2024-01-27T08:30:29;17.40;20.70
939;DHT22;456;53.584;9.968;2024-01-27T08:32:55;17.30;20.70
939;DHT22;456;53.584;9.968;2024-01-27T08:35:21;17.30;20.70
939;DHT22;456;53.584;9.968;2024-01-27T08:37:47;17.40;20.80
939;DHT22;456;53.584;9.968;2024-01-27T08:40:12;17.30;20.70
939;DHT22;456;53.584;9.968;2024-01-27T08:42:38;17.40;20.70
939;DHT22;456;53.584;9.968;2024-01-27T08:45:05;17.40;20.70
939;DHT22;456;53.584;9.968;2024-01-27T08:47:31;17.30;20.60
939;DHT22;456;53.584;9.968;2024-01-27T08:49:57;17.40;20.70
939;DHT22;456;53.584;9.968;2024-01-27T08:52:23;17.40;20.70
939;DHT22;456;53.584;9.968;2024-01-27T08:54:48;17.40;20.70
939;DHT22;456;53.584;9.968;2024-01-27T08:57:14;17.40;20.70
939;DHT22;456;53.584;9.968;2024-01-27T08:59:40;17.40;20.70
939;DHT22;456;53.584;9.968;2024-01-27T09:02:05;17.40;20.70
939;DHT22;456;53.584;9.968;2024-01-27T09:04:31;17.40;20.60
939;DHT22;456;53.584;9.968;2024-01-27T09:06:56;17.40;20.70
939;DHT22;456;53.584;9.968;2024-01-27T09:09:22;17.40;20.70
939;DHT22;456;53.584;9.968;2024-01-27T09:11:48;17.40;20.70
939;DHT22;456;53.584;9.968;2024-01-27T09:14:14;17.40;20.70
939;DHT22;456;53.584;9.968;2024-01-27T09:16:39;17.40;20.70
939;DHT22;456;53.584;9.968;2024-01-27T09:19:05;17.40;21.20
939;DHT22;456;53.584;9.968;2024-01-27T09:21:31;17.50;20.90
939;DHT22;456;53.584;9.968;2024-01-27T09:23:58;17.40;20.70
939;DHT22;456;53.584;9.968;2024-01-27T09:26:24;17.50;20.70
939;DHT22;456;53.584;9.968;2024-01-27T09:28:49;17.50;20.90
939;DHT22;456;53.584;9.968;2024-01-27T09:31:24;17.40;20.70
939;DHT22;456;53.584;9.968;2024-01-27T09:33:51;17.40;20.80
939;DHT22;456;53.584;9.968;2024-01-27T09:36:20;17.50;20.90
939;DHT22;456;53.584;9.968;2024-01-27T09:38:46;17.50;20.90
939;DHT22;456;53.584;9.968;2024-01-27T09:41:15;17.50;20.90
939;DHT22;456;53.584;9.968;2024-01-27T09:43:45;17.50;20.90
939;DHT22;456;53.584;9.968;2024-01-27T09:46:15;17.50;20.90
939;DHT22;456;53.584;9.968;2024-01-27T09:48:41;17.50;21.00
939;DHT22;456;53.584;9.968;2024-01-27T09:51:08;17.50;20.90
939;DHT22;456;53.584;9.968;2024-01-27T09:53:34;17.50;21.00
939;DHT22;456;53.584;9.968;2024-01-27T09:56:01;17.50;21.00
939;DHT22;456;53.584;9.968;2024-01-27T09:58:30;17.50;21.00
939;DHT22;456;53.584;9.968;2024-01-27T10:00:57;17.50;21.10
939;DHT22;456;53.584;9.968;2024-01-27T10:03:28;17.50;21.00
939;DHT22;456;53.584;9.968;2024-01-27T10:05:56;17.50;20.80
939;DHT22;456;53.584;9.968;2024-01-27T10:08:22;17.50;20.90
939;DHT22;456;53.584;9.968;2024-01-27T10:10:55;17.50;20.90
939;DHT22;456;53.584;9.968;2024-01-27T10:13:24;17.50;20.80
939;DHT22;456;53.584;9.968;2024-01-27T10:16:08;17.50;20.90
939;DHT22;456;53.584;9.968;2024-01-27T10:18:34;17.50;20.90
939;DHT22;456;53.584;9.968;2024-01-27T10:21:00;17.50;20.90
939;DHT22;456;53.584;9.968;2024-01-27T10:23:40;17.50;20.90
939;DHT22;456;53.584;9.968;2024-01-27T10:26:09;17.50;20.80
939;DHT22;456;53.584;9.968;2024-01-27T10:28:35;17.50;20.90
939;DHT22;456;53.584;9.968;2024-01-27T10:31:08;17.50;20.90
939;DHT22;456;53.584;9.968;2024-01-27T10:33:34;17.50;20.90
939;DHT22;456;53.584;9.968;2024-01-27T10:36:00;17.50;20.80
939;DHT22;456;53.584;9.968;2024-01-27T10:38:37;17.50;20.90
939;DHT22;456;53.584;9.968;2024-01-27T10:41:09;17.50;20.90
939;DHT22;456;53.584;9.968;2024-01-27T10:43:38;17.50;20.80
939;DHT22;456;53.584;9.968;2024-01-27T10:46:08;17.60;20.90
939;DHT22;456;53.584;9.968;2024-01-27T10:48:35;17.60;21.00
939;DHT22;456;53.584;9.968;2024-01-27T10:51:08;17.50;20.90
939;DHT22;456;53.584;9.968;2024-01-27T10:53:35;17.60;21.00
939;DHT22;456;53.584;9.968;2024-01-27T10:56:03;17.60;21.00
939;DHT22;456;53.584;9.968;2024-01-27T10:58:34;17.50;21.00
939;DHT22;456;53.584;9.968;2024-01-27T11:01:11;17.60;21.10
939;DHT22;456;53.584;9.968;2024-01-27T11:03:38;17.60;21.10
939;DHT22;456;53.584;9.968;2024-01-27T11:06:06;17.60;21.10
939;DHT22;456;53.584;9.968;2024-01-27T11:08:33;17.60;21.10
939;DHT22;456;53.584;9.968;2024-01-27T11:11:03;17.60;21.10
939;DHT22;456;53.584;9.968;2024-01-27T11:13:30;17.60;21.10
939;DHT22;456;53.584;9.968;2024-01-27T11:15:57;17.60;21.10
939;DHT22;456;53.584;9.968;2024-01-27T11:18:26;17.60;21.20
939;DHT22;456;53.584;9.968;2024-01-27T11:20:55;17.60;21.10
939;DHT22;456;53.584;9.968;2024-01-27T11:23:34;17.60;21.10
939;DHT22;456;53.584;9.968;2024-01-27T11:26:05;17.50;21.10
939;DHT22;456;53.584;9.968;2024-01-27T11:28:31;17.60;21.20
939;DHT22;456;53.584;9.968;2024-01-27T11:30:56;17.50;21.10
939;DHT22;456;53.584;9.968;2024-01-27T11:33:24;17.50;21.30
939;DHT22;456;53.584;9.968;2024-01-27T11:36:03;17.60;21.30
939;DHT22;456;53.584;9.968;2024-01-27T11:38:33;17.60;21.20
939;DHT22;456;53.584;9.968;2024-01-27T11:41:02;17.60;21.20
939;DHT22;456;53.584;9.968;2024-01-27T11:43:28;17.60;21.20
939;DHT22;456;53.584;9.968;2024-01-27T11:46:00;17.60;21.20
939;DHT22;456;53.584;9.968;2024-01-27T11:48:27;17.60;21.30
939;DHT22;456;53.584;9.968;2024-01-27T11:51:06;17.60;21.30
939;DHT22;456;53.584;9.968;2024-01-27T11:53:31;17.60;21.20
939;DHT22;456;53.584;9.968;2024-01-27T11:55:57;17.60;21.30
939;DHT22;456;53.584;9.968;2024-01-27T11:58:24;17.60;21.30
939;DHT22;456;53.584;9.968;2024-01-27T12:00:50;17.60;21.20
939;DHT22;456;53.584;9.968;2024-01-27T12:03:16;17.60;21.20
939;DHT22;456;53.584;9.968;2024-01-27T12:05:41;17.60;21.30
939;DHT22;456;53.584;9.968;2024-01-27T12:08:08;17.60;21.30
939;DHT22;456;53.584;9.968;2024-01-27T12:10:34;17.60;21.30
939;DHT22;456;53.584;9.968;2024-01-27T12:13:00;17.60;21.20
939;DHT22;456;53.584;9.968;2024-01-27T12:15:26;17.60;21.30
939;DHT22;456;53.584;9.968;2024-01-27T12:17:52;17.60;21.20
939;DHT22;456;53.584;9.968;2024-01-27T12:20:18;17.60;21.20
939;DHT22;456;53.584;9.968;2024-01-27T12:22:44;17.60;21.20
939;DHT22;456;53.584;9.968;2024-01-27T12:25:11;17.60;21.20
939;DHT22;456;53.584;9.968;2024-01-27T12:27:43;17.60;21.10
939;DHT22;456;53.584;9.968;2024-01-27T12:30:09;17.60;21.20
939;DHT22;456;53.584;9.968;2024-01-27T12:32:35;17.60;21.20
939;DHT22;456;53.584;9.968;2024-01-27T12:35:08;17.60;21.80
939;DHT22;456;53.584;9.968;2024-01-27T12:37:35;17.60;21.30
939;DHT22;456;53.584;9.968;2024-01-27T12:40:02;17.60;21.30
939;DHT22;456;53.584;9.968;2024-01-27T12:42:28;17.60;21.20
939;DHT22;456;53.584;9.968;2024-01-27T12:44:53;17.60;21.30
939;DHT22;456;53.584;9.968;2024-01-27T12:47:19;17.60;21.20
939;DHT22;456;53.584;9.968;2024-01-27T12:49:45;17.60;21.30
939;DHT22;456;53.584;9.968;2024-01-27T12:52:11;17.60;21.30
939;DHT22;456;53.584;9.968;2024-01-27T12:54:36;17.60;21.30
939;DHT22;456;53.584;9.968;2024-01-27T12:57:02;17.60;21.30
939;DHT22;456;53.584;9.968;2024-01-27T12:59:28;17.60;21.30
939;DHT22;456;53.584;9.968;2024-01-27T13:01:54;17.60;21.30
939;DHT22;456;53.584;9.968;2024-01-27T13:04:20;17.60;21.40
939;DHT22;456;53.584;9.968;2024-01-27T13:06:45;17.60;21.40
939;DHT22;456;53.584;9.968;2024-01-27T13:09:11;17.60;21.40
939;DHT22;456;53.584;9.968;2024-01-27T13:11:38;17.60;21.40
939;DHT22;456;53.584;9.968;2024-01-27T13:14:03;17.70;21.50
939;DHT22;456;53.584;9.968;2024-01-27T13:16:30;17.60;21.40
939;DHT22;456;53.584;9.968;2024-01-27T13:18:55;17.60;21.40
939;DHT22;456;53.584;9.968;2024-01-27T13:21:21;17.60;21.40
939;DHT22;456;53.584;9.968;2024-01-27T13:23:46;17.60;21.20
939;DHT22;456;53.584;9.968;2024-01-27T13:26:12;17.60;21.20
939;DHT22;456;53.584;9.968;2024-01-27T13:28:38;17.60;21.20
939;DHT22;456;53.584;9.968;2024-01-27T13:31:03;17.60;21.30
939;DHT22;456;53.584;9.968;2024-01-27T13:33:30;17.60;21.30
939;DHT22;456;53.584;9.968;2024-01-27T13:35:56;17.60;21.30
939;DHT22;456;53.584;9.968;2024-01-27T13:38:21;17.60;21.40
939;DHT22;456;53.584;9.968;2024-01-27T13:40:51;17.60;21.30
939;DHT22;456;53.584;9.968;2024-01-27T13:43:17;17.60;21.30
939;DHT22;456;53.584;9.968;2024-01-27T13:45:42;17.60;21.20
939;DHT22;456;53.584;9.968;2024-01-27T13:48:09;17.70;21.30
939;DHT22;456;53.584;9.968;2024-01-27T13:50:34;17.60;21.20
939;DHT22;456;53.584;9.968;2024-01-27T13:53:00;17.60;21.20
939;DHT22;456;53.584;9.968;2024-01-27T13:55:26;17.60;21.20
939;DHT22;456;53.584;9.968;2024-01-27T13:57:52;17.70;21.30
939;DHT22;456;53.584;9.968;2024-01-27T14:00:18;17.60;21.30
939;DHT22;456;53.584;9.968;2024-01-27T14:02:44;17.60;21.30
939;DHT22;456;53.584;9.968;2024-01-27T14:05:10;17.60;21.30
939;DHT22;456;53.584;9.968;2024-01-27T14:07:36;17.60;21.40
939;DHT22;456;53.584;9.968;2024-01-27T14:10:02;17.60;21.40
939;DHT22;456;53.584;9.968;2024-01-27T14:12:27;17.70;21.50
939;DHT22;456;53.584;9.968;2024-01-27T14:14:55;17.60;21.50
939;DHT22;456;53.584;9.968;2024-01-27T14:17:27;17.60;21.50
939;DHT22;456;53.584;9.968;2024-01-27T14:19:52;17.60;21.40
939;DHT22;456;53.584;9.968;2024-01-27T14:22:18;17.60;21.50
939;DHT22;456;53.584;9.968;2024-01-27T14:24:43;17.60;21.50
939;DHT22;456;53.584;9.968;2024-01-27T14:27:10;17.60;21.60
939;DHT22;456;53.584;9.968;2024-01-27T14:29:35;17.70;21.60
939;DHT22;456;53.584;9.968;2024-01-27T14:32:02;17.60;21.60
939;DHT22;456;53.584;9.968;2024-01-27T14:34:28;17.60;21.60
939;DHT22;456;53.584;9.968;2024-01-27T14:36:54;17.60;21.50
939;DHT22;456;53.584;9.968;2024-01-27T14:39:20;17.60;21.60
939;DHT22;456;53.584;9.968;2024-01-27T14:41:46;17.70;21.70
939;DHT22;456;53.584;9.968;2024-01-27T14:44:11;17.60;22.10
939;DHT22;456;53.584;9.968;2024-01-27T14:46:37;17.70;21.60
939;DHT22;456;53.584;9.968;2024-01-27T14:49:06;17.60;21.50
939;DHT22;456;53.584;9.968;2024-01-27T14:51:33;17.70;21.50
939;DHT22;456;53.584;9.968;2024-01-27T14:54:00;17.60;21.50
939;DHT22;456;53.584;9.968;2024-01-27T14:56:29;17.70;21.50
939;DHT22;456;53.584;9.968;2024-01-27T14:58:55;17.70;21.50
939;DHT22;456;53.584;9.968;2024-01-27T15:01:21;17.60;21.60
939;DHT22;456;53.584;9.968;2024-01-27T15:03:47;17.60;21.70
939;DHT22;456;53.584;9.968;2024-01-27T15:06:13;17.50;21.60
939;DHT22;456;53.584;9.968;2024-01-27T15:08:38;17.50;21.60
939;DHT22;456;53.584;9.968;2024-01-27T15:11:04;17.50;21.70
939;DHT22;456;53.584;9.968;2024-01-27T15:13:30;17.50;21.70
939;DHT22;456;53.584;9.968;2024-01-27T15:15:56;17.50;21.60
939;DHT22;456;53.584;9.968;2024-01-27T15:18:21;17.50;21.70
939;DHT22;456;53.584;9.968;2024-01-27T15:20:47;17.50;21.80
939;DHT22;456;53.584;9.968;2024-01-27T15:23:13;17.60;21.90
939;DHT22;456;53.584;9.968;2024-01-27T15:25:39;17.60;21.90
939;DHT22;456;53.584;9.968;2024-01-27T15:28:04;17.60;21.90
939;DHT22;456;53.584;9.968;2024-01-27T15:30:30;17.60;21.90
939;DHT22;456;53.584;9.968;2024-01-27T15:32:56;17.60;22.00
939;DHT22;456;53.584;9.968;2024-01-27T15:35:21;17.60;22.20
939;DHT22;456;53.584;9.968;2024-01-27T15:37:47;17.70;22.10
939;DHT22;456;53.584;9.968;2024-01-27T15:40:12;17.80;22.30
939;DHT22;456;53.584;9.968;2024-01-27T15:42:38;17.80;22.40
939;DHT22;456;53.584;9.968;2024-01-27T15:45:05;17.70;22.40
939;DHT22;456;53.584;9.968;2024-01-27T15:47:30;17.80;22.60
939;DHT22;456;53.584;9.968;2024-01-27T15:49:56;17.80;22.70
939;DHT22;456;53.584;9.968;2024-01-27T15:52:28;17.80;22.90
939;DHT22;456;53.584;9.968;2024-01-27T15:54:54;18.00;24.60
939;DHT22;456;53.584;9.968;2024-01-27T15:57:20;18.00;24.30
939;DHT22;456;53.584;9.968;2024-01-27T15:59:45;18.00;24.30
939;DHT22;456;53.584;9.968;2024-01-27T16:02:11;18.00;24.20
939;DHT22;456;53.584;9.968;2024-01-27T16:04:37;18.00;24.20
939;DHT22;456;53.584;9.968;2024-01-27T16:07:02;18.00;24.30
939;DHT22;456;53.584;9.968;2024-01-27T16:09:28;17.90;24.20
939;DHT22;456;53.584;9.968;2024-01-27T16:11:54;18.00;24.30
939;DHT22;456;53.584;9.968;2024-01-27T16:14:22;18.00;24.30
939;DHT22;456;53.584;9.968;2024-01-27T16:16:47;18.00;24.40
939;DHT22;456;53.584;9.968;2024-01-27T16:19:13;18.00;24.40
939;DHT22;456;53.584;9.968;2024-01-27T16:21:38;18.00;24.40
939;DHT22;456;53.584;9.968;2024-01-27T16:24:04;18.10;24.40
939;DHT22;456;53.584;9.968;2024-01-27T16:26:30;18.10;26.50
939;DHT22;456;53.584;9.968;2024-01-27T16:28:56;18.30;27.60
939;DHT22;456;53.584;9.968;2024-01-27T16:31:22;18.40;28.40